Lewiston, MI (49756)

9:17 PM EDT on August 28, 2015 (GMT -0400)
Moon Lake | | Change Station
CLOSE
Current Station
Personal Weather Station
Location: Lewiston, MI
Elevation: 1240 ft
Nearby Weather Stations

Elev 1240 ft 44.84 °N, 84.26 °W | Updated 6 minutes ago

Partly Cloudy
Partly Cloudy
64.6 °F
Feels Like 64.6 °F
N
0.0
Wind Variable Wind from WSW
Gusts 0.0 mph

Today
High -- | Low -- °F
--% Chance of Precip.
Yesterday
High -- | Low -- °F
Precip. -- in
6:54 AM 8:21 PM
Waxing Gibbous, 99% visible
Pressure 30.11 in
Visibility 10.0 miles
Clouds Scattered Clouds 9000 ft
Dew Point 57 °F
Humidity 76%
Rainfall 0.00 in
Snow Depth Not available.
UV 0 out of 12
Pollen 10.10 out of 12
Air Quality Not available.
Flu Activity Not available.
METAR KGOV 290117Z AUTO 00000KT 10SM SCT090 18/14 A3011 RMK AO2 T01750143
Pressure 30.11 in
Visibility 10.0 miles
Clouds Scattered Clouds 9000 ft
Dew Point 57 °F
Humidity 76%
Rainfall 0.00 in
Snow Depth Not available.
UV 0 out of 12
Pollen 10.10 out of 12
Air Quality Not available.
Flu Activity Not available.
METAR KGOV 290117Z AUTO 00000KT 10SM SCT090 18/14 A3011 RMK AO2 T01750143
Nowcast | as of 9:00 PM EDT on August 28, 2015

At 10 PM...mostly cloudy. Temperature 67. Southwest winds 5 mph. At 12 am...showers likely. Temperature 65. Light winds. At 2 am...showers likely. Temperature 63. Southwest winds 5 mph. At 4 am...periods of showers. Temperature 62. Southwest winds 5 mph.

×

10-Day Weather Forecast

×

Almanac

Astronomy

Aug. 28, 2015 Rise Set
Actual Time
Civil Twilight
Nautical Twilight
Astronomical Twilight
Moon
Length of Visible Light
Length of Day
Tomorrow will be .
, % of the Moon is Illuminated

Today's Extremes

State Highs State Lows

Community

WunderPhotos

Upload Photos

1,850,561 photos uploaded!

WunderBlogs® & News

Nearby

Air Quality

  Air Quality AQ Index Pollutant
Not available.

Snow Depth

Station Depth Elevation

Earthquake Activity

City Distance Mag. Time & Date
Minimum magnitude displayed is 2.5.

Coastal Water Temperatures

Place Temperature

Stations

Nearby Weather Stations

Station Location Temp. Windchill Dew Point Humidity Wind Precip. Elev Updated Type